| time (UTC) | temp C | wind direction | speed KPH | gust KPH | rain 1hr cm | rain 24hr cm | rain mn cm | humidity % | barometer mb |
| 20260505034530 | 17 | 145 | 0.0 | 1.6 | 0.00 | 0.00 | 0.00 | 77 | 1014.2 |
| 20260505033030 | 18 | 140 | 0.0 | 3.2 | 0.00 | 0.00 | 0.00 | 76 | 1014.2 |
| 20260505031529 | 18 | 191 | 0.0 | 4.8 | 0.00 | 0.00 | 0.00 | 76 | 1014.1 |
| 20260505030026 | 18 | 167 | 0.0 | 0.0 | 0.00 | 0.00 | 0.00 | 75 | 1014.1 |
| 20260505024524 | 18 | 167 | 0.0 | 0.0 | 0.00 | 0.00 | 0.00 | 74 | 1013.8 |
| 20260505023025 | 18 | 131 | 0.0 | 1.6 | 0.00 | 0.00 | 0.00 | 72 | 1013.7 |
| 20260505021527 | 18 | 125 | 0.0 | 1.6 | 0.00 | 0.00 | 0.00 | 71 | 1013.6 |
| 20260505020018 | 19 | 137 | 0.0 | 1.6 | 0.00 | 0.00 | 0.00 | 69 | 1013.7 |
| 20260505014516 | 20 | 191 | 0.0 | 0.0 | 0.00 | 0.00 | 0.00 | 67 | 1013.4 |
| 20260505013130 | 20 | 150 | 0.0 | 1.6 | 0.00 | 0.00 | 0.00 | 65 | 1013.3 |
| 20260505011512 | 21 | 158 | 0.0 | 4.8 | 0.00 | 0.00 | 0.00 | 62 | 1013.1 |
| 20260505010010 | 21 | 179 | 0.0 | 6.4 | 0.00 | 0.00 | 0.00 | 60 | 1013.2 |
| 20260505004514 | 22 | 169 | 0.0 | 4.8 | 0.00 | 0.00 | 0.00 | 57 | 1013.0 |
| 20260505003005 | 22 | 203 | 0.0 | 8.0 | 0.00 | 0.00 | 0.00 | 54 | 1013.2 |
| 20260505001502 | 23 | 162 | 3.2 | 16.1 | 0.00 | 0.00 | 0.00 | 51 | 1013.3 |
| 20260505000108 | 23 | 165 | 6.4 | 11.3 | 0.00 | 0.00 | 0.00 | 49 | 1013.7 |
| 20260504234558 | 24 | 158 | 4.8 | 14.5 | 0.00 | 0.00 | 0.00 | 49 | 1013.8 |
| 20260504233104 | 25 | 178 | 3.2 | 16.1 | 0.00 | 0.00 | 0.00 | 47 | 1013.8 |
| 20260504231553 | 25 | 220 | 6.4 | 17.7 | 0.00 | 0.00 | 0.00 | 46 | 1013.9 |
| 20260504230059 | 26 | 179 | 3.2 | 14.5 | 0.00 | 0.00 | 0.00 | 46 | 1013.9 |
| 20260504224547 | 26 | 150 | 4.8 | 17.7 | 0.00 | 0.00 | 0.00 | 45 | 1014.1 |
| 20260504223054 | 26 | 146 | 3.2 | 12.9 | 0.00 | 0.00 | 0.00 | 45 | 1014.1 |
| 20260504221543 | 26 | 153 | 4.8 | 16.1 | 0.00 | 0.00 | 0.00 | 45 | 1014.3 |
| 20260504220042 | 26 | 193 | 4.8 | 16.1 | 0.00 | 0.00 | 0.00 | 47 | 1014.4 |
| 20260504214541 | 27 | 183 | 4.8 | 16.1 | 0.00 | 0.00 | 0.00 | 46 | 1014.5 |
| 20260504213034 | 27 | 94 | 1.6 | 14.5 | 0.00 | 0.00 | 0.00 | 48 | 1014.6 |
| 20260504211534 | 26 | 149 | 6.4 | 14.5 | 0.00 | 0.00 | 0.00 | 47 | 1014.7 |
| 20260504210024 | 27 | 179 | 0.0 | 12.9 | 0.00 | 0.00 | 0.00 | 50 | 1015.0 |
| 20260504204523 | 26 | 209 | 8.0 | 16.1 | 0.00 | 0.00 | 0.00 | 47 | 1015.2 |
| 20260504203019 | 26 | 98 | 4.8 | 16.1 | 0.00 | 0.00 | 0.00 | 49 | 1015.4 |
| 20260504201514 | 26 | 199 | 4.8 | 17.7 | 0.00 | 0.00 | 0.00 | 48 | 1015.6 |
| 20260504200011 | 26 | 166 | 1.6 | 16.1 | 0.00 | 0.00 | 0.00 | 50 | 1015.6 |
| 20260504194508 | 26 | 177 | 6.4 | 16.1 | 0.00 | 0.00 | 0.00 | 46 | 1016.1 |
| 20260504193004 | 26 | 23 | 9.7 | 19.3 | 0.00 | 0.00 | 0.00 | 45 | 1016.4 |
| 20260504191605 | 26 | 194 | 3.2 | 14.5 | 0.00 | 0.00 | 0.00 | 49 | 1016.5 |
| 20260504190116 | 26 | 217 | 6.4 | 17.7 | 0.00 | 0.00 | 0.00 | 47 | 1016.7 |
| 20260504184618 | 26 | 217 | 6.4 | 22.5 | 0.00 | 0.00 | 0.00 | 48 | 1016.7 |
| 20260504183052 | 26 | 210 | 1.6 | 14.5 | 0.00 | 0.00 | 0.00 | 51 | 1017.0 |
| 20260504181549 | 25 | 136 | 1.6 | 11.3 | 0.00 | 0.00 | 0.00 | 48 | 1017.3 |
| 20260504180052 | 25 | 163 | 1.6 | 16.1 | 0.00 | 0.00 | 0.00 | 49 | 1017.5 |
| 20260504174545 | 25 | 207 | 6.4 | 16.1 | 0.00 | 0.00 | 0.00 | 50 | 1017.6 |
| 20260504173041 | 25 | 162 | 4.8 | 11.3 | 0.00 | 0.00 | 0.00 | 47 | 1017.6 |
| 20260504171537 | 25 | 136 | 4.8 | 14.5 | 0.00 | 0.00 | 0.00 | 47 | 1017.8 |
| 20260504081536 | 12 | 151 | 0.0 | 0.0 | 0.00 | 0.00 | 0.00 | 92 | 1018.2 |
| 20260504044550 | 17 | 172 | 0.0 | 1.6 | 0.00 | 0.00 | 0.00 | 71 | 1019.3 |
| 20260504043044 | 17 | 200 | 0.0 | 4.8 | 0.00 | 0.00 | 0.00 | 69 | 1019.5 |
| 20260504041542 | 17 | 182 | 1.6 | 4.8 | 0.00 | 0.00 | 0.00 | 69 | 1019.5 |
| 20260504040044 | 17 | 143 | 1.6 | 9.7 | 0.00 | 0.00 | 0.00 | 69 | 1019.7 |